JEF22 LFPB-LOWI
Flight info
| Callsign | JEF22 |
|---|---|
| Flight time | 1h 3m |
| Altitude | 41000 |
| Route | BUBLI DCT LUVAL DCT MIRGU DCT BEGAR DCT TRA DCT GAMSA N871 MADEB MADEB1B |
| Aircraft | CL60/M-SBDE1E2E3FGHIJ1J3J4J5J7M3P2RWXYZ/LB1V1D1 |
Departure
| Time | 2026-04-15 13:07 |
|---|---|
| Airport | Paris-Le Bourget International Airport (LFPB) |
Arrival
| Time | 2026-04-15 14:10 |
|---|---|
| Airport | Innsbruck Airport (LOWI) |
| Time | Latitude | Longitude | Altitude | Speed | Heading |
|---|---|---|---|---|---|
| 2026-04-15 12:32 | 48.95022 | 2.43632 | 149 ft | 0 kts | 301° |
| 2026-04-15 12:59 | 48.95024 | 2.43627 | 149 ft | 0 kts | 303° |
| 2026-04-15 13:00 | 48.95026 | 2.43620 | 149 ft | 0 kts | 303° |
| 2026-04-15 13:00 | 48.95034 | 2.43603 | 149 ft | 0 kts | 303° |
| 2026-04-15 13:00 | 48.95036 | 2.43598 | 149 ft | 0 kts | 303° |
| 2026-04-15 13:00 | 48.95039 | 2.43592 | 149 ft | 2 kts | 306° |
| 2026-04-15 13:01 | 48.95048 | 2.43578 | 149 ft | 3 kts | 330° |
| 2026-04-15 13:01 | 48.95105 | 2.43591 | 148 ft | 13 kts | 30° |
| 2026-04-15 13:01 | 48.95129 | 2.43613 | 148 ft | 4 kts | 33° |
| 2026-04-15 13:01 | 48.95203 | 2.43678 | 147 ft | 18 kts | 29° |
| 2026-04-15 13:02 | 48.95332 | 2.43783 | 146 ft | 23 kts | 28° |
| 2026-04-15 13:02 | 48.95486 | 2.43909 | 147 ft | 26 kts | 28° |
| 2026-04-15 13:02 | 48.95660 | 2.44035 | 149 ft | 28 kts | 25° |
| 2026-04-15 13:02 | 48.95845 | 2.44165 | 154 ft | 29 kts | 25° |
| 2026-04-15 13:03 | 48.96031 | 2.44297 | 160 ft | 29 kts | 25° |
| 2026-04-15 13:03 | 48.96214 | 2.44426 | 167 ft | 29 kts | 24° |
| 2026-04-15 13:03 | 48.96395 | 2.44550 | 174 ft | 22 kts | 12° |
| 2026-04-15 13:03 | 48.96558 | 2.44527 | 176 ft | 24 kts | 350° |
| 2026-04-15 13:04 | 48.96722 | 2.44454 | 179 ft | 23 kts | 348° |
| 2026-04-15 13:04 | 48.96856 | 2.44541 | 184 ft | 22 kts | 53° |
| 2026-04-15 13:04 | 48.96923 | 2.44765 | 188 ft | 24 kts | 69° |
| 2026-04-15 13:04 | 48.96989 | 2.45010 | 193 ft | 26 kts | 68° |
| 2026-04-15 13:05 | 48.97060 | 2.45275 | 198 ft | 27 kts | 69° |
| 2026-04-15 13:05 | 48.97133 | 2.45541 | 203 ft | 27 kts | 69° |
| 2026-04-15 13:05 | 48.97190 | 2.45760 | 207 ft | 11 kts | 69° |
| 2026-04-15 13:05 | 48.97194 | 2.45774 | 207 ft | 4 kts | 67° |
| 2026-04-15 13:06 | 48.97248 | 2.45865 | 209 ft | 15 kts | 31° |
| 2026-04-15 13:06 | 48.97351 | 2.45861 | 210 ft | 15 kts | 311° |
| 2026-04-15 13:06 | 48.97369 | 2.45710 | 208 ft | 18 kts | 248° |
| 2026-04-15 13:06 | 48.97190 | 2.45039 | 196 ft | 119 kts | 248° |
| 2026-04-15 13:07 | 48.96838 | 2.43612 | 616 ft | 162 kts | 249° |
| 2026-04-15 13:07 | 48.96398 | 2.41860 | 1357 ft | 196 kts | 245° |
| 2026-04-15 13:07 | 48.95812 | 2.39845 | 2287 ft | 223 kts | 244° |
| 2026-04-15 13:07 | 48.95160 | 2.37648 | 3306 ft | 244 kts | 245° |
| 2026-04-15 13:08 | 48.94458 | 2.35266 | 4337 ft | 256 kts | 245° |
| 2026-04-15 13:08 | 48.93732 | 2.32795 | 5769 ft | 259 kts | 245° |
| 2026-04-15 13:08 | 48.93020 | 2.30371 | 7206 ft | 261 kts | 246° |
| 2026-04-15 13:08 | 48.92286 | 2.27871 | 8556 ft | 265 kts | 245° |
| 2026-04-15 13:09 | 48.91547 | 2.25347 | 9823 ft | 271 kts | 246° |
| 2026-04-15 13:09 | 48.91142 | 2.22567 | 11090 ft | 277 kts | 265° |
| 2026-04-15 13:09 | 48.91090 | 2.19638 | 12191 ft | 287 kts | 266° |
| 2026-04-15 13:09 | 48.91034 | 2.16522 | 12967 ft | 307 kts | 265° |
| 2026-04-15 13:10 | 48.90957 | 2.13198 | 13713 ft | 325 kts | 265° |
| 2026-04-15 13:10 | 48.90814 | 2.09723 | 14520 ft | 336 kts | 258° |
| 2026-04-15 13:10 | 48.89937 | 2.06542 | 15583 ft | 334 kts | 232° |
| 2026-04-15 13:10 | 48.88182 | 2.04343 | 16627 ft | 337 kts | 207° |
| 2026-04-15 13:11 | 48.85889 | 2.03585 | 17539 ft | 348 kts | 182° |
| 2026-04-15 13:11 | 48.83436 | 2.04241 | 18123 ft | 369 kts | 164° |
| 2026-04-15 13:11 | 48.81136 | 2.06138 | 18569 ft | 393 kts | 145° |
| 2026-04-15 13:11 | 48.79300 | 2.09337 | 18845 ft | 411 kts | 123° |
| 2026-04-15 13:12 | 48.78392 | 2.13443 | 19103 ft | 419 kts | 100° |
| 2026-04-15 13:12 | 48.78507 | 2.17909 | 19161 ft | 425 kts | 83° |
| 2026-04-15 13:12 | 48.78989 | 2.22361 | 19158 ft | 422 kts | 82° |
| 2026-04-15 13:12 | 48.79446 | 2.26744 | 19163 ft | 420 kts | 83° |
| 2026-04-15 13:13 | 48.79854 | 2.31116 | 19168 ft | 419 kts | 84° |
| 2026-04-15 13:13 | 48.80182 | 2.35480 | 19166 ft | 421 kts | 85° |
| 2026-04-15 13:13 | 48.80495 | 2.39964 | 19558 ft | 433 kts | 85° |
| 2026-04-15 13:13 | 48.80809 | 2.44489 | 20494 ft | 433 kts | 85° |
| 2026-04-15 13:14 | 48.81122 | 2.49019 | 21391 ft | 433 kts | 85° |
| 2026-04-15 13:14 | 48.81430 | 2.53545 | 22153 ft | 437 kts | 85° |
| 2026-04-15 13:14 | 48.81738 | 2.58110 | 22870 ft | 440 kts | 85° |
| 2026-04-15 13:14 | 48.81940 | 2.62799 | 23517 ft | 443 kts | 95° |
| 2026-04-15 13:15 | 48.81416 | 2.67337 | 24125 ft | 443 kts | 107° |
| 2026-04-15 13:15 | 48.80678 | 2.71892 | 24684 ft | 449 kts | 107° |
| 2026-04-15 13:15 | 48.79935 | 2.76534 | 25295 ft | 453 kts | 107° |
| 2026-04-15 13:15 | 48.79191 | 2.81165 | 25889 ft | 456 kts | 107° |
| 2026-04-15 13:16 | 48.78444 | 2.85803 | 26448 ft | 459 kts | 107° |
| 2026-04-15 13:16 | 48.77676 | 2.90556 | 26959 ft | 463 kts | 107° |
| 2026-04-15 13:16 | 48.76914 | 2.95256 | 27456 ft | 466 kts | 107° |
| 2026-04-15 13:16 | 48.76132 | 3.00068 | 27939 ft | 469 kts | 107° |
| 2026-04-15 13:17 | 48.75354 | 3.04839 | 28384 ft | 472 kts | 107° |
| 2026-04-15 13:17 | 48.74567 | 3.09651 | 28804 ft | 475 kts | 107° |
| 2026-04-15 13:17 | 48.73763 | 3.14549 | 29184 ft | 479 kts | 106° |
| 2026-04-15 13:17 | 48.72952 | 3.19480 | 29554 ft | 482 kts | 106° |
| 2026-04-15 13:18 | 48.72145 | 3.24367 | 29998 ft | 483 kts | 106° |
| 2026-04-15 13:18 | 48.71322 | 3.29346 | 30501 ft | 482 kts | 106° |
| 2026-04-15 13:18 | 48.70507 | 3.34253 | 31008 ft | 481 kts | 106° |
| 2026-04-15 13:18 | 48.69696 | 3.39130 | 31485 ft | 480 kts | 106° |
| 2026-04-15 13:19 | 48.68873 | 3.44057 | 31949 ft | 480 kts | 107° |
| 2026-04-15 13:19 | 48.68041 | 3.49022 | 32384 ft | 479 kts | 106° |
| 2026-04-15 13:19 | 48.67212 | 3.53955 | 32814 ft | 479 kts | 106° |
| 2026-04-15 13:19 | 48.66386 | 3.58860 | 33243 ft | 478 kts | 106° |
| 2026-04-15 13:20 | 48.65556 | 3.63771 | 33654 ft | 478 kts | 106° |
| 2026-04-15 13:20 | 48.64731 | 3.68641 | 34040 ft | 477 kts | 107° |
| 2026-04-15 13:20 | 48.63905 | 3.73498 | 34448 ft | 477 kts | 107° |
| 2026-04-15 13:20 | 48.63055 | 3.78487 | 34883 ft | 476 kts | 107° |
| 2026-04-15 13:21 | 48.62236 | 3.83275 | 35299 ft | 474 kts | 107° |
| 2026-04-15 13:21 | 48.61400 | 3.88157 | 35705 ft | 473 kts | 107° |
| 2026-04-15 13:21 | 48.60568 | 3.92994 | 36112 ft | 472 kts | 107° |
| 2026-04-15 13:21 | 48.59734 | 3.97830 | 36484 ft | 471 kts | 107° |
| 2026-04-15 13:22 | 48.58909 | 4.02607 | 36845 ft | 470 kts | 107° |
| 2026-04-15 13:22 | 48.58079 | 4.07396 | 37154 ft | 470 kts | 106° |
| 2026-04-15 13:22 | 48.57251 | 4.12160 | 37437 ft | 470 kts | 106° |
| 2026-04-15 13:22 | 48.56416 | 4.16947 | 37718 ft | 470 kts | 106° |
| 2026-04-15 13:23 | 48.55583 | 4.21713 | 37964 ft | 470 kts | 106° |
| 2026-04-15 13:23 | 48.54743 | 4.26506 | 38240 ft | 470 kts | 106° |
| 2026-04-15 13:23 | 48.53901 | 4.31300 | 38476 ft | 470 kts | 106° |
| 2026-04-15 13:23 | 48.53067 | 4.36030 | 38694 ft | 470 kts | 106° |
| 2026-04-15 13:24 | 48.52229 | 4.40772 | 38909 ft | 470 kts | 105° |
| 2026-04-15 13:24 | 48.51387 | 4.45526 | 39123 ft | 470 kts | 105° |
| 2026-04-15 13:24 | 48.50544 | 4.50277 | 39328 ft | 470 kts | 105° |
| 2026-04-15 13:24 | 48.49685 | 4.55101 | 39539 ft | 470 kts | 105° |
| 2026-04-15 13:25 | 48.48842 | 4.59824 | 39745 ft | 469 kts | 105° |
| 2026-04-15 13:25 | 48.47992 | 4.64570 | 39923 ft | 469 kts | 105° |
| 2026-04-15 13:25 | 48.47132 | 4.69363 | 40070 ft | 468 kts | 106° |
| 2026-04-15 13:25 | 48.46283 | 4.74077 | 40202 ft | 468 kts | 106° |
| 2026-04-15 13:26 | 48.45422 | 4.78847 | 40331 ft | 468 kts | 106° |
| 2026-04-15 13:26 | 48.44565 | 4.83589 | 40460 ft | 468 kts | 106° |
| 2026-04-15 13:26 | 48.43708 | 4.88310 | 40592 ft | 467 kts | 105° |
| 2026-04-15 13:26 | 48.42858 | 4.92985 | 40716 ft | 467 kts | 105° |
| 2026-04-15 13:27 | 48.41992 | 4.97737 | 40844 ft | 466 kts | 105° |
| 2026-04-15 13:27 | 48.41136 | 5.02421 | 40976 ft | 465 kts | 105° |
| 2026-04-15 13:27 | 48.40281 | 5.07086 | 41099 ft | 465 kts | 105° |
| 2026-04-15 13:27 | 48.39424 | 5.11750 | 41188 ft | 465 kts | 105° |
| 2026-04-15 13:28 | 48.37695 | 5.21128 | 41179 ft | 469 kts | 105° |
| 2026-04-15 13:28 | 48.35932 | 5.30642 | 41176 ft | 473 kts | 105° |
| 2026-04-15 13:29 | 48.34156 | 5.40174 | 41179 ft | 476 kts | 105° |
| 2026-04-15 13:29 | 48.32370 | 5.49717 | 41180 ft | 478 kts | 104° |
| 2026-04-15 13:30 | 48.30548 | 5.59394 | 41176 ft | 479 kts | 104° |
| 2026-04-15 13:30 | 48.28729 | 5.69006 | 41175 ft | 479 kts | 105° |
| 2026-04-15 13:31 | 48.26900 | 5.78625 | 41172 ft | 477 kts | 105° |
| 2026-04-15 13:31 | 48.25070 | 5.88195 | 41185 ft | 476 kts | 105° |
| 2026-04-15 13:32 | 48.23232 | 5.97762 | 41190 ft | 476 kts | 105° |
| 2026-04-15 13:32 | 48.21408 | 6.07210 | 41183 ft | 476 kts | 104° |
| 2026-04-15 13:33 | 48.19552 | 6.16775 | 41179 ft | 476 kts | 104° |
| 2026-04-15 13:33 | 48.17695 | 6.26296 | 41173 ft | 476 kts | 104° |
| 2026-04-15 13:34 | 48.15845 | 6.35734 | 41168 ft | 476 kts | 104° |
| 2026-04-15 13:34 | 48.13974 | 6.45233 | 41163 ft | 475 kts | 104° |
| 2026-04-15 13:35 | 48.12110 | 6.54650 | 41168 ft | 475 kts | 104° |
| 2026-04-15 13:35 | 48.10216 | 6.64167 | 41164 ft | 474 kts | 104° |
| 2026-04-15 13:36 | 48.08352 | 6.73496 | 41160 ft | 474 kts | 105° |
| 2026-04-15 13:36 | 48.06459 | 6.82921 | 40872 ft | 479 kts | 104° |
| 2026-04-15 13:37 | 48.05488 | 6.87739 | 40624 ft | 479 kts | 104° |
| 2026-04-15 13:37 | 48.04530 | 6.92478 | 40386 ft | 477 kts | 104° |
| 2026-04-15 13:37 | 48.03577 | 6.97184 | 40144 ft | 475 kts | 104° |
| 2026-04-15 13:37 | 48.02626 | 7.01868 | 39877 ft | 473 kts | 104° |
| 2026-04-15 13:38 | 48.01673 | 7.06546 | 39628 ft | 472 kts | 104° |
| 2026-04-15 13:38 | 48.00713 | 7.11251 | 39389 ft | 472 kts | 104° |
| 2026-04-15 13:38 | 47.99760 | 7.15913 | 39144 ft | 473 kts | 104° |
| 2026-04-15 13:38 | 47.98788 | 7.20655 | 38896 ft | 473 kts | 104° |
| 2026-04-15 13:39 | 47.97829 | 7.25327 | 38651 ft | 474 kts | 104° |
| 2026-04-15 13:39 | 47.96862 | 7.30023 | 38263 ft | 477 kts | 104° |
| 2026-04-15 13:39 | 47.95887 | 7.34747 | 37696 ft | 477 kts | 104° |
| 2026-04-15 13:39 | 47.94910 | 7.39468 | 37145 ft | 475 kts | 104° |
| 2026-04-15 13:40 | 47.93941 | 7.44138 | 36609 ft | 475 kts | 104° |
| 2026-04-15 13:40 | 47.92969 | 7.48813 | 36081 ft | 475 kts | 104° |
| 2026-04-15 13:40 | 47.91989 | 7.53517 | 35560 ft | 476 kts | 104° |
| 2026-04-15 13:40 | 47.90989 | 7.58250 | 35180 ft | 476 kts | 105° |
| 2026-04-15 13:41 | 47.88731 | 7.67331 | 35100 ft | 480 kts | 108° |
| 2026-04-15 13:41 | 47.87620 | 7.71723 | 34752 ft | 485 kts | 108° |
| 2026-04-15 13:41 | 47.86389 | 7.76571 | 34374 ft | 484 kts | 108° |
| 2026-04-15 13:42 | 47.85224 | 7.81157 | 34013 ft | 483 kts | 108° |
| 2026-04-15 13:42 | 47.84027 | 7.85857 | 33657 ft | 483 kts | 108° |
| 2026-04-15 13:42 | 47.82831 | 7.90548 | 33282 ft | 484 kts | 108° |
| 2026-04-15 13:42 | 47.81649 | 7.95171 | 32915 ft | 484 kts | 108° |
| 2026-04-15 13:43 | 47.80441 | 7.99890 | 32536 ft | 484 kts | 108° |
| 2026-04-15 13:43 | 47.79250 | 8.04529 | 32167 ft | 485 kts | 108° |
| 2026-04-15 13:43 | 47.78040 | 8.09236 | 31789 ft | 486 kts | 108° |
| 2026-04-15 13:43 | 47.76825 | 8.13954 | 31416 ft | 486 kts | 108° |
| 2026-04-15 13:44 | 47.75632 | 8.18574 | 31044 ft | 487 kts | 108° |
| 2026-04-15 13:44 | 47.74422 | 8.23249 | 30678 ft | 487 kts | 108° |
| 2026-04-15 13:44 | 47.73205 | 8.27948 | 30308 ft | 486 kts | 108° |
| 2026-04-15 13:44 | 47.71997 | 8.32600 | 29947 ft | 483 kts | 108° |
| 2026-04-15 13:45 | 47.70787 | 8.37249 | 29574 ft | 479 kts | 108° |
| 2026-04-15 13:45 | 47.69593 | 8.41829 | 29203 ft | 476 kts | 108° |
| 2026-04-15 13:45 | 47.68424 | 8.46463 | 28831 ft | 472 kts | 106° |
| 2026-04-15 13:47 | 47.61282 | 8.77992 | 26235 ft | 449 kts | 106° |
| 2026-04-15 13:47 | 47.60289 | 8.82356 | 25902 ft | 446 kts | 106° |
| 2026-04-15 13:47 | 47.59309 | 8.86650 | 25585 ft | 443 kts | 106° |
| 2026-04-15 13:48 | 47.58317 | 8.90989 | 25262 ft | 440 kts | 106° |
| 2026-04-15 13:48 | 47.57349 | 8.95210 | 24945 ft | 438 kts | 106° |
| 2026-04-15 13:48 | 47.56372 | 8.99462 | 24630 ft | 436 kts | 106° |
| 2026-04-15 13:48 | 47.55393 | 9.03711 | 24326 ft | 433 kts | 106° |
| 2026-04-15 13:49 | 47.54422 | 9.07914 | 24004 ft | 431 kts | 107° |
| 2026-04-15 13:49 | 47.53459 | 9.12076 | 23696 ft | 429 kts | 107° |
| 2026-04-15 13:49 | 47.52496 | 9.16228 | 23401 ft | 426 kts | 107° |
| 2026-04-15 13:49 | 47.51539 | 9.20346 | 23086 ft | 423 kts | 107° |
| 2026-04-15 13:50 | 47.50585 | 9.24438 | 22781 ft | 421 kts | 107° |
| 2026-04-15 13:50 | 47.49630 | 9.28526 | 22466 ft | 418 kts | 107° |
| 2026-04-15 13:50 | 47.48695 | 9.32524 | 22176 ft | 416 kts | 107° |
| 2026-04-15 13:50 | 47.47755 | 9.36535 | 21879 ft | 414 kts | 107° |
| 2026-04-15 13:51 | 47.46817 | 9.40526 | 21586 ft | 412 kts | 107° |
| 2026-04-15 13:51 | 47.45878 | 9.44520 | 21290 ft | 410 kts | 107° |
| 2026-04-15 13:51 | 47.44942 | 9.48485 | 20997 ft | 409 kts | 107° |
| 2026-04-15 13:51 | 47.44004 | 9.52457 | 20693 ft | 407 kts | 107° |
| 2026-04-15 13:52 | 47.43082 | 9.56352 | 20404 ft | 405 kts | 107° |
| 2026-04-15 13:52 | 47.42144 | 9.60308 | 20116 ft | 403 kts | 107° |
| 2026-04-15 13:52 | 47.41225 | 9.64188 | 19821 ft | 402 kts | 106° |
| 2026-04-15 13:52 | 47.40480 | 9.68155 | 19512 ft | 399 kts | 100° |
| 2026-04-15 13:53 | 47.39964 | 9.72176 | 19212 ft | 394 kts | 99° |
| 2026-04-15 13:53 | 47.39476 | 9.76051 | 18944 ft | 382 kts | 99° |
| 2026-04-15 13:53 | 47.38995 | 9.79829 | 18656 ft | 365 kts | 99° |
| 2026-04-15 13:53 | 47.38529 | 9.83464 | 18467 ft | 351 kts | 99° |
| 2026-04-15 13:54 | 47.38083 | 9.86929 | 18208 ft | 341 kts | 99° |
| 2026-04-15 13:54 | 47.37649 | 9.90287 | 17920 ft | 330 kts | 99° |
| 2026-04-15 13:54 | 47.37226 | 9.93545 | 17644 ft | 325 kts | 99° |
| 2026-04-15 13:54 | 47.36799 | 9.96828 | 17371 ft | 320 kts | 99° |
| 2026-04-15 13:55 | 47.36377 | 10.00064 | 17140 ft | 322 kts | 99° |
| 2026-04-15 13:55 | 47.35954 | 10.03287 | 16955 ft | 323 kts | 99° |
| 2026-04-15 13:55 | 47.35529 | 10.06512 | 16695 ft | 321 kts | 99° |
| 2026-04-15 13:55 | 47.35100 | 10.09763 | 16451 ft | 321 kts | 99° |
| 2026-04-15 13:56 | 47.34677 | 10.12951 | 16275 ft | 318 kts | 99° |
| 2026-04-15 13:56 | 47.34250 | 10.16161 | 16002 ft | 320 kts | 99° |
| 2026-04-15 13:56 | 47.33818 | 10.19394 | 15758 ft | 318 kts | 100° |
| 2026-04-15 13:56 | 47.33392 | 10.22578 | 15534 ft | 317 kts | 100° |
| 2026-04-15 13:57 | 47.32968 | 10.25736 | 15341 ft | 316 kts | 100° |
| 2026-04-15 13:57 | 47.32540 | 10.28919 | 15093 ft | 315 kts | 100° |
| 2026-04-15 13:57 | 47.32112 | 10.32067 | 14865 ft | 314 kts | 100° |
| 2026-04-15 13:57 | 47.31684 | 10.35204 | 14628 ft | 312 kts | 100° |
| 2026-04-15 13:58 | 47.31258 | 10.38320 | 14433 ft | 310 kts | 101° |
| 2026-04-15 13:58 | 47.30827 | 10.41462 | 14210 ft | 310 kts | 101° |
| 2026-04-15 13:58 | 47.30405 | 10.44522 | 13959 ft | 304 kts | 101° |
| 2026-04-15 13:58 | 47.29993 | 10.47511 | 13750 ft | 295 kts | 101° |
| 2026-04-15 13:59 | 47.29586 | 10.50460 | 13551 ft | 287 kts | 101° |
| 2026-04-15 13:59 | 47.29192 | 10.53303 | 13341 ft | 280 kts | 101° |
| 2026-04-15 13:59 | 47.28808 | 10.56077 | 13155 ft | 273 kts | 100° |
| 2026-04-15 13:59 | 47.28650 | 10.58790 | 13067 ft | 264 kts | 86° |
| 2026-04-15 14:00 | 47.28763 | 10.61470 | 13109 ft | 257 kts | 85° |
| 2026-04-15 14:00 | 47.28877 | 10.64044 | 13077 ft | 250 kts | 85° |
| 2026-04-15 14:00 | 47.28985 | 10.66576 | 13112 ft | 242 kts | 86° |
| 2026-04-15 14:00 | 47.29088 | 10.69000 | 12810 ft | 232 kts | 86° |
| 2026-04-15 14:01 | 47.29278 | 10.73526 | 12061 ft | 218 kts | 86° |
| 2026-04-15 14:01 | 47.29370 | 10.75745 | 11737 ft | 215 kts | 86° |
| 2026-04-15 14:01 | 47.29459 | 10.77930 | 11387 ft | 215 kts | 85° |
| 2026-04-15 14:02 | 47.29547 | 10.80107 | 11028 ft | 212 kts | 86° |
| 2026-04-15 14:02 | 47.29633 | 10.82261 | 10689 ft | 210 kts | 86° |
| 2026-04-15 14:02 | 47.29718 | 10.84393 | 10331 ft | 209 kts | 87° |
| 2026-04-15 14:02 | 47.29793 | 10.86517 | 10033 ft | 205 kts | 88° |
| 2026-04-15 14:03 | 47.29848 | 10.88531 | 9663 ft | 191 kts | 88° |
| 2026-04-15 14:03 | 47.29910 | 10.90406 | 9392 ft | 181 kts | 88° |
| 2026-04-15 14:03 | 47.29979 | 10.92285 | 9042 ft | 182 kts | 87° |
| 2026-04-15 14:03 | 47.30048 | 10.94129 | 8785 ft | 182 kts | 87° |
| 2026-04-15 14:04 | 47.30117 | 10.95980 | 8477 ft | 181 kts | 87° |
| 2026-04-15 14:04 | 47.30186 | 10.97820 | 8173 ft | 180 kts | 86° |
| 2026-04-15 14:04 | 47.30254 | 10.99660 | 7866 ft | 179 kts | 86° |
| 2026-04-15 14:04 | 47.30320 | 11.01481 | 7557 ft | 176 kts | 86° |
| 2026-04-15 14:05 | 47.30380 | 11.03203 | 7273 ft | 164 kts | 87° |
| 2026-04-15 14:05 | 47.30345 | 11.04871 | 7015 ft | 162 kts | 95° |
| 2026-04-15 14:05 | 47.30171 | 11.06491 | 6829 ft | 161 kts | 101° |
| 2026-04-15 14:05 | 47.29892 | 11.08073 | 6599 ft | 156 kts | 105° |
| 2026-04-15 14:06 | 47.29575 | 11.09564 | 6350 ft | 150 kts | 108° |
| 2026-04-15 14:06 | 47.29258 | 11.10995 | 6100 ft | 145 kts | 107° |
| 2026-04-15 14:06 | 47.28954 | 11.12415 | 5857 ft | 148 kts | 107° |
| 2026-04-15 14:06 | 47.28624 | 11.13879 | 5604 ft | 153 kts | 109° |
| 2026-04-15 14:07 | 47.28226 | 11.15355 | 5310 ft | 154 kts | 111° |
| 2026-04-15 14:07 | 47.27822 | 11.16798 | 4972 ft | 152 kts | 111° |
| 2026-04-15 14:07 | 47.27437 | 11.18264 | 4677 ft | 156 kts | 109° |
| 2026-04-15 14:07 | 47.27090 | 11.19754 | 4470 ft | 152 kts | 108° |
| 2026-04-15 14:08 | 47.26759 | 11.21214 | 4212 ft | 148 kts | 107° |
| 2026-04-15 14:08 | 47.26450 | 11.22630 | 3997 ft | 144 kts | 107° |
| 2026-04-15 14:08 | 47.26163 | 11.24052 | 3797 ft | 145 kts | 104° |
| 2026-04-15 14:08 | 47.25927 | 11.25508 | 3606 ft | 146 kts | 101° |
| 2026-04-15 14:09 | 47.25743 | 11.26987 | 3278 ft | 146 kts | 99° |
| 2026-04-15 14:09 | 47.25616 | 11.28435 | 2961 ft | 141 kts | 94° |
| 2026-04-15 14:09 | 47.25600 | 11.29828 | 2648 ft | 133 kts | 88° |
| 2026-04-15 14:09 | 47.25680 | 11.31145 | 2377 ft | 126 kts | 82° |
| 2026-04-15 14:10 | 47.25808 | 11.32401 | 2128 ft | 125 kts | 81° |
| 2026-04-15 14:10 | 47.25941 | 11.33672 | 1924 ft | 121 kts | 79° |
| 2026-04-15 14:10 | 47.26052 | 11.34695 | 1915 ft | 73 kts | 81° |
| 2026-04-15 14:10 | 47.26104 | 11.35176 | 1913 ft | 19 kts | 82° |
| 2026-04-15 14:11 | 47.26047 | 11.35263 | 1912 ft | 15 kts | 170° |
| 2026-04-15 14:11 | 47.25925 | 11.35288 | 1912 ft | 14 kts | 187° |
| 2026-04-15 14:11 | 47.25890 | 11.35176 | 1913 ft | 13 kts | 262° |
| 2026-04-15 14:11 | 47.25872 | 11.35024 | 1914 ft | 16 kts | 260° |
| 2026-04-15 14:12 | 47.25854 | 11.34845 | 1914 ft | 19 kts | 261° |
| 2026-04-15 14:12 | 47.25831 | 11.34629 | 1916 ft | 22 kts | 260° |
| 2026-04-15 14:12 | 47.25785 | 11.34531 | 1916 ft | 12 kts | 169° |
| 2026-04-15 14:12 | 47.25730 | 11.34530 | 1916 ft | 9 kts | 96° |
| 2026-04-15 14:13 | 47.25738 | 11.34572 | 1916 ft | 2 kts | 17° |
| 2026-04-15 14:13 | 47.25740 | 11.34572 | 1916 ft | 0 kts | 352° |
| 2026-04-15 14:13 | 47.25736 | 11.34573 | 1916 ft | 0 kts | 350° |